sensor_id;sensor_type;location;lat;lon;timestamp;pressure;altitude;pressure_sealevel;temperature;humidity
46876;BME280;32866;50.160;14.768;2023-06-22T00:00:57;99651.13;;;19.54;nan
46876;BME280;32866;50.160;14.768;2023-06-22T00:03:24;99619.56;;;19.25;nan
46876;BME280;32866;50.160;14.768;2023-06-22T00:05:51;99642.09;;;19.27;nan
46876;BME280;32866;50.160;14.768;2023-06-22T00:08:18;99643.22;;;19.15;nan
46876;BME280;32866;50.160;14.768;2023-06-22T00:10:45;99641.25;;;19.21;nan
46876;BME280;32866;50.160;14.768;2023-06-22T00:13:12;99643.56;;;19.23;nan
46876;BME280;32866;50.160;14.768;2023-06-22T00:15:39;99637.03;;;19.26;nan
46876;BME280;32866;50.160;14.768;2023-06-22T00:18:06;99610.81;;;19.01;nan
46876;BME280;32866;50.160;14.768;2023-06-22T00:20:32;99652.03;;;19.14;nan
46876;BME280;32866;50.160;14.768;2023-06-22T00:23:03;99651.28;;;19.13;nan
46876;BME280;32866;50.160;14.768;2023-06-22T00:25:37;99655.00;;;19.04;nan
46876;BME280;32866;50.160;14.768;2023-06-22T00:28:06;99631.00;;;19.01;nan
46876;BME280;32866;50.160;14.768;2023-06-22T00:30:33;99658.78;;;19.07;nan
46876;BME280;32866;50.160;14.768;2023-06-22T00:33:00;99668.41;;;19.06;nan
46876;BME280;32866;50.160;14.768;2023-06-22T00:35:26;99667.75;;;18.90;nan
46876;BME280;32866;50.160;14.768;2023-06-22T00:37:56;99675.69;;;19.03;nan
46876;BME280;32866;50.160;14.768;2023-06-22T00:40:27;99683.75;;;19.01;nan
46876;BME280;32866;50.160;14.768;2023-06-22T00:42:55;99688.06;;;19.02;nan
46876;BME280;32866;50.160;14.768;2023-06-22T00:45:25;99691.72;;;18.94;nan
46876;BME280;32866;50.160;14.768;2023-06-22T00:47:58;99664.53;;;18.77;nan
46876;BME280;32866;50.160;14.768;2023-06-22T00:50:26;99654.72;;;18.56;nan
46876;BME280;32866;50.160;14.768;2023-06-22T00:52:55;99676.13;;;18.96;nan
46876;BME280;32866;50.160;14.768;2023-06-22T00:55:24;99671.50;;;18.87;nan
46876;BME280;32866;50.160;14.768;2023-06-22T00:57:52;99665.09;;;18.81;nan
46876;BME280;32866;50.160;14.768;2023-06-22T01:00:25;99636.78;;;18.57;nan
46876;BME280;32866;50.160;14.768;2023-06-22T01:02:52;99659.69;;;18.72;nan
46876;BME280;32866;50.160;14.768;2023-06-22T01:05:19;99620.75;;;18.40;nan
46876;BME280;32866;50.160;14.768;2023-06-22T01:12:55;99643.63;;;18.35;nan
46876;BME280;32866;50.160;14.768;2023-06-22T01:15:41;99645.00;;;18.45;nan
46876;BME280;32866;50.160;14.768;2023-06-22T01:18:11;99640.66;;;18.39;nan
46876;BME280;32866;50.160;14.768;2023-06-22T01:20:38;99619.50;;;18.21;nan
46876;BME280;32866;50.160;14.768;2023-06-22T01:23:21;99639.06;;;18.32;nan
46876;BME280;32866;50.160;14.768;2023-06-22T01:26:17;99637.25;;;18.29;nan
46876;BME280;32866;50.160;14.768;2023-06-22T01:28:53;99623.78;;;18.22;nan
46876;BME280;32866;50.160;14.768;2023-06-22T01:31:22;99616.94;;;18.17;nan
46876;BME280;32866;50.160;14.768;2023-06-22T01:33:55;99617.19;;;18.19;nan
46876;BME280;32866;50.160;14.768;2023-06-22T01:36:24;99626.91;;;18.09;nan
46876;BME280;32866;50.160;14.768;2023-06-22T01:38:52;99628.97;;;18.14;nan
46876;BME280;32866;50.160;14.768;2023-06-22T01:41:20;99626.00;;;18.17;nan
46876;BME280;32866;50.160;14.768;2023-06-22T01:43:48;99626.97;;;18.14;nan
46876;BME280;32866;50.160;14.768;2023-06-22T01:46:14;99630.84;;;18.02;nan
46876;BME280;32866;50.160;14.768;2023-06-22T01:48:41;99599.72;;;17.77;nan
46876;BME280;32866;50.160;14.768;2023-06-22T01:51:06;99624.19;;;17.94;nan
46876;BME280;32866;50.160;14.768;2023-06-22T01:53:33;99631.06;;;17.84;nan
46876;BME280;32866;50.160;14.768;2023-06-22T01:55:59;99608.56;;;17.61;nan
46876;BME280;32866;50.160;14.768;2023-06-22T01:58:26;99604.47;;;17.56;nan
46876;BME280;32866;50.160;14.768;2023-06-22T02:00:56;99625.09;;;17.70;nan
46876;BME280;32866;50.160;14.768;2023-06-22T02:03:32;99627.69;;;17.59;nan
46876;BME280;32866;50.160;14.768;2023-06-22T02:06:06;99637.41;;;17.69;nan
46876;BME280;32866;50.160;14.768;2023-06-22T02:08:40;99633.50;;;17.61;nan
46876;BME280;32866;50.160;14.768;2023-06-22T02:11:09;99630.84;;;17.52;nan
46876;BME280;32866;50.160;14.768;2023-06-22T02:13:36;99626.75;;;17.47;nan
46876;BME280;32866;50.160;14.768;2023-06-22T02:16:03;99643.94;;;17.51;nan
46876;BME280;32866;50.160;14.768;2023-06-22T02:18:29;99637.41;;;17.54;nan
46876;BME280;32866;50.160;14.768;2023-06-22T02:20:55;99622.09;;;17.38;nan
46876;BME280;32866;50.160;14.768;2023-06-22T02:23:21;99654.63;;;17.58;nan
46876;BME280;32866;50.160;14.768;2023-06-22T02:25:47;99661.72;;;17.45;nan
46876;BME280;32866;50.160;14.768;2023-06-22T02:28:13;99627.91;;;17.11;nan
46876;BME280;32866;50.160;14.768;2023-06-22T02:30:39;99624.66;;;17.27;nan
46876;BME280;32866;50.160;14.768;2023-06-22T02:33:05;99660.00;;;17.32;nan
46876;BME280;32866;50.160;14.768;2023-06-22T02:35:31;99659.97;;;17.17;nan
46876;BME280;32866;50.160;14.768;2023-06-22T02:38:01;99670.31;;;17.17;nan
46876;BME280;32866;50.160;14.768;2023-06-22T02:40:28;99668.47;;;17.14;nan
46876;BME280;32866;50.160;14.768;2023-06-22T02:42:58;99629.03;;;16.89;nan
46876;BME280;32866;50.160;14.768;2023-06-22T02:45:27;99664.47;;;17.15;nan
46876;BME280;32866;50.160;14.768;2023-06-22T02:47:53;99655.03;;;17.21;nan
46876;BME280;32866;50.160;14.768;2023-06-22T02:50:19;99660.66;;;17.27;nan
46876;BME280;32866;50.160;14.768;2023-06-22T02:52:45;99654.63;;;17.14;nan
46876;BME280;32866;50.160;14.768;2023-06-22T02:55:11;99656.66;;;17.28;nan
46876;BME280;32866;50.160;14.768;2023-06-22T02:57:37;99666.94;;;17.28;nan
46876;BME280;32866;50.160;14.768;2023-06-22T03:00:03;99659.31;;;17.37;nan
46876;BME280;32866;50.160;14.768;2023-06-22T03:02:38;99652.44;;;17.48;nan
46876;BME280;32866;50.160;14.768;2023-06-22T03:05:04;99648.97;;;17.53;nan
46876;BME280;32866;50.160;14.768;2023-06-22T03:07:31;99651.84;;;17.58;nan
46876;BME280;32866;50.160;14.768;2023-06-22T03:09:57;99651.75;;;17.53;nan
46876;BME280;32866;50.160;14.768;2023-06-22T03:12:23;99656.19;;;17.45;nan
46876;BME280;32866;50.160;14.768;2023-06-22T03:14:49;99654.16;;;17.45;nan
46876;BME280;32866;50.160;14.768;2023-06-22T03:17:15;99648.03;;;17.56;nan
46876;BME280;32866;50.160;14.768;2023-06-22T03:19:41;99651.84;;;17.58;nan
46876;BME280;32866;50.160;14.768;2023-06-22T03:22:06;99634.19;;;17.56;nan
46876;BME280;32866;50.160;14.768;2023-06-22T03:24:33;99617.78;;;17.37;nan
46876;BME280;32866;50.160;14.768;2023-06-22T03:27:00;99654.97;;;17.66;nan
46876;BME280;32866;50.160;14.768;2023-06-22T03:29:27;99620.53;;;17.37;nan
46876;BME280;32866;50.160;14.768;2023-06-22T03:31:52;99660.94;;;17.59;nan
46876;BME280;32866;50.160;14.768;2023-06-22T03:34:18;99657.69;;;17.46;nan
46876;BME280;32866;50.160;14.768;2023-06-22T03:36:44;99665.13;;;17.54;nan
46876;BME280;32866;50.160;14.768;2023-06-22T03:39:11;99671.44;;;17.55;nan
46876;BME280;32866;50.160;14.768;2023-06-22T03:41:36;99676.03;;;17.58;nan
46876;BME280;32866;50.160;14.768;2023-06-22T03:44:02;99676.03;;;17.58;nan
46876;BME280;32866;50.160;14.768;2023-06-22T03:46:28;99630.88;;;17.37;nan
46876;BME280;32866;50.160;14.768;2023-06-22T03:48:54;99668.84;;;17.66;nan
46876;BME280;32866;50.160;14.768;2023-06-22T03:51:20;99683.06;;;17.74;nan
46876;BME280;32866;50.160;14.768;2023-06-22T03:53:46;99687.38;;;17.90;nan
46876;BME280;32866;50.160;14.768;2023-06-22T03:56:13;99652.88;;;17.61;nan
46876;BME280;32866;50.160;14.768;2023-06-22T03:58:45;99682.47;;;17.85;nan
46876;BME280;32866;50.160;14.768;2023-06-22T04:01:11;99677.81;;;17.91;nan
46876;BME280;32866;50.160;14.768;2023-06-22T04:03:38;99687.16;;;18.08;nan
46876;BME280;32866;50.160;14.768;2023-06-22T04:06:04;99669.41;;;18.21;nan
46876;BME280;32866;50.160;14.768;2023-06-22T04:08:30;99669.69;;;18.43;nan
46876;BME280;32866;50.160;14.768;2023-06-22T04:10:56;99662.63;;;18.42;nan
46876;BME280;32866;50.160;14.768;2023-06-22T04:13:22;99652.75;;;18.41;nan
46876;BME280;32866;50.160;14.768;2023-06-22T04:15:48;99668.63;;;18.61;nan
46876;BME280;32866;50.160;14.768;2023-06-22T04:18:14;99648.00;;;18.42;nan
46876;BME280;32866;50.160;14.768;2023-06-22T04:20:40;99642.38;;;18.36;nan
46876;BME280;32866;50.160;14.768;2023-06-22T04:23:05;99677.41;;;18.80;nan
46876;BME280;32866;50.160;14.768;2023-06-22T04:25:31;99651.38;;;18.72;nan
46876;BME280;32866;50.160;14.768;2023-06-22T04:27:57;99678.16;;;18.96;nan
46876;BME280;32866;50.160;14.768;2023-06-22T04:30:23;99670.09;;;18.98;nan
46876;BME280;32866;50.160;14.768;2023-06-22T04:32:49;99671.81;;;19.21;nan
46876;BME280;32866;50.160;14.768;2023-06-22T04:35:24;99663.84;;;19.35;nan
46876;BME280;32866;50.160;14.768;2023-06-22T04:37:50;99661.91;;;19.41;nan
46876;BME280;32866;50.160;14.768;2023-06-22T04:40:24;99658.66;;;19.48;nan
46876;BME280;32866;50.160;14.768;2023-06-22T04:42:50;99647.34;;;19.57;nan
46876;BME280;32866;50.160;14.768;2023-06-22T04:45:19;99662.56;;;19.62;nan
46876;BME280;32866;50.160;14.768;2023-06-22T04:47:46;99662.88;;;19.70;nan
46876;BME280;32866;50.160;14.768;2023-06-22T04:50:12;99663.84;;;19.67;nan
46876;BME280;32866;50.160;14.768;2023-06-22T04:52:38;99660.16;;;19.75;nan
46876;BME280;32866;50.160;14.768;2023-06-22T04:55:04;99665.56;;;19.90;nan
46876;BME280;32866;50.160;14.768;2023-06-22T04:57:30;99663.03;;;19.92;nan
46876;BME280;32866;50.160;14.768;2023-06-22T04:59:58;99647.13;;;19.93;nan
46876;BME280;32866;50.160;14.768;2023-06-22T05:02:37;99666.94;;;20.12;nan
46876;BME280;32866;50.160;14.768;2023-06-22T05:05:04;99661.88;;;20.10;nan
46876;BME280;32866;50.160;14.768;2023-06-22T05:07:36;99676.34;;;20.20;nan
46876;BME280;32866;50.160;14.768;2023-06-22T05:10:03;99692.16;;;20.46;nan
46876;BME280;32866;50.160;14.768;2023-06-22T05:12:29;99694.53;;;20.64;nan
46876;BME280;32866;50.160;14.768;2023-06-22T05:14:56;99689.06;;;20.87;nan
46876;BME280;32866;50.160;14.768;2023-06-22T05:17:22;99658.88;;;20.74;nan
46876;BME280;32866;50.160;14.768;2023-06-22T05:19:48;99687.59;;;21.08;nan
46876;BME280;32866;50.160;14.768;2023-06-22T05:22:15;99687.31;;;21.12;nan
46876;BME280;32866;50.160;14.768;2023-06-22T05:24:42;99671.84;;;21.00;nan
46876;BME280;32866;50.160;14.768;2023-06-22T05:27:08;99705.59;;;21.36;nan
46876;BME280;32866;50.160;14.768;2023-06-22T05:29:35;99715.78;;;21.56;nan
46876;BME280;32866;50.160;14.768;2023-06-22T05:32:01;99713.72;;;21.56;nan
46876;BME280;32866;50.160;14.768;2023-06-22T05:34:27;99712.22;;;21.72;nan
46876;BME280;32866;50.160;14.768;2023-06-22T05:36:53;99698.78;;;21.71;nan
46876;BME280;32866;50.160;14.768;2023-06-22T05:39:19;99708.38;;;21.98;nan
46876;BME280;32866;50.160;14.768;2023-06-22T05:41:45;99726.13;;;22.17;nan
46876;BME280;32866;50.160;14.768;2023-06-22T05:44:12;99720.50;;;22.23;nan
46876;BME280;32866;50.160;14.768;2023-06-22T05:46:42;99731.66;;;22.40;nan
46876;BME280;32866;50.160;14.768;2023-06-22T05:49:12;99744.50;;;22.66;nan
46876;BME280;32866;50.160;14.768;2023-06-22T05:51:40;99745.00;;;22.70;nan
46876;BME280;32866;50.160;14.768;2023-06-22T05:54:06;99747.41;;;23.02;nan
46876;BME280;32866;50.160;14.768;2023-06-22T05:59:09;99740.06;;;23.76;nan
46876;BME280;32866;50.160;14.768;2023-06-22T06:01:35;99751.38;;;23.95;nan
46876;BME280;32866;50.160;14.768;2023-06-22T06:04:03;99765.38;;;24.44;nan
46876;BME280;32866;50.160;14.768;2023-06-22T06:06:29;99762.13;;;24.16;nan
46876;BME280;32866;50.160;14.768;2023-06-22T06:08:56;99750.34;;;24.72;nan
46876;BME280;32866;50.160;14.768;2023-06-22T06:11:22;99746.72;;;24.77;nan
46876;BME280;32866;50.160;14.768;2023-06-22T06:13:48;99709.66;;;24.22;nan
46876;BME280;32866;50.160;14.768;2023-06-22T06:16:14;99719.25;;;24.26;nan
46876;BME280;32866;50.160;14.768;2023-06-22T06:18:40;99738.38;;;24.47;nan
46876;BME280;32866;50.160;14.768;2023-06-22T06:21:06;99704.28;;;24.24;nan
46876;BME280;32866;50.160;14.768;2023-06-22T06:23:32;99750.13;;;24.70;nan
46876;BME280;32866;50.160;14.768;2023-06-22T06:25:58;99755.41;;;24.93;nan
46876;BME280;32866;50.160;14.768;2023-06-22T06:28:25;99760.66;;;25.21;nan
46876;BME280;32866;50.160;14.768;2023-06-22T06:30:51;99760.28;;;25.11;nan
46876;BME280;32866;50.160;14.768;2023-06-22T06:33:17;99740.97;;;25.27;nan
46876;BME280;32866;50.160;14.768;2023-06-22T06:35:43;99718.75;;;25.29;nan
46876;BME280;32866;50.160;14.768;2023-06-22T06:38:09;99719.66;;;25.37;nan
46876;BME280;32866;50.160;14.768;2023-06-22T06:40:36;99724.72;;;25.39;nan
46876;BME280;32866;50.160;14.768;2023-06-22T06:43:02;99748.09;;;25.60;nan
46876;BME280;32866;50.160;14.768;2023-06-22T06:45:28;99729.97;;;25.10;nan
46876;BME280;32866;50.160;14.768;2023-06-22T06:47:56;99746.78;;;25.29;nan
46876;BME280;32866;50.160;14.768;2023-06-22T06:50:22;99741.69;;;25.46;nan
46876;BME280;32866;50.160;14.768;2023-06-22T06:52:48;99720.63;;;25.72;nan
46876;BME280;32866;50.160;14.768;2023-06-22T06:55:16;99702.03;;;25.69;nan
46876;BME280;32866;50.160;14.768;2023-06-22T06:57:42;99731.53;;;26.21;nan
46876;BME280;32866;50.160;14.768;2023-06-22T07:00:12;99735.72;;;26.01;nan
46876;BME280;32866;50.160;14.768;2023-06-22T07:02:40;99738.97;;;26.32;nan
46876;BME280;32866;50.160;14.768;2023-06-22T07:05:07;99737.31;;;26.90;nan
46876;BME280;32866;50.160;14.768;2023-06-22T07:07:33;99729.19;;;27.34;nan
46876;BME280;32866;50.160;14.768;2023-06-22T07:10:00;99735.63;;;27.85;nan
46876;BME280;32866;50.160;14.768;2023-06-22T07:12:26;99728.94;;;28.17;nan
46876;BME280;32866;50.160;14.768;2023-06-22T07:14:52;99722.34;;;28.79;nan
46876;BME280;32866;50.160;14.768;2023-06-22T07:17:18;99715.69;;;29.13;nan
46876;BME280;32866;50.160;14.768;2023-06-22T07:19:45;99720.09;;;30.07;nan
46876;BME280;32866;50.160;14.768;2023-06-22T07:22:11;99687.81;;;30.41;nan
46876;BME280;32866;50.160;14.768;2023-06-22T07:24:37;99683.88;;;30.44;nan
46876;BME280;32866;50.160;14.768;2023-06-22T07:27:03;99705.47;;;30.57;nan
46876;BME280;32866;50.160;14.768;2023-06-22T07:29:32;99696.88;;;30.80;nan
46876;BME280;32866;50.160;14.768;2023-06-22T07:31:58;99667.25;;;30.48;nan
46876;BME280;32866;50.160;14.768;2023-06-22T07:34:26;99699.81;;;31.30;nan
46876;BME280;32866;50.160;14.768;2023-06-22T07:36:52;99665.34;;;31.24;nan
46876;BME280;32866;50.160;14.768;2023-06-22T07:39:18;99683.47;;;31.21;nan
46876;BME280;32866;50.160;14.768;2023-06-22T07:41:44;99675.44;;;31.35;nan
46876;BME280;32866;50.160;14.768;2023-06-22T07:44:10;99695.84;;;31.33;nan
46876;BME280;32866;50.160;14.768;2023-06-22T07:46:36;99678.97;;;31.43;nan
46876;BME280;32866;50.160;14.768;2023-06-22T07:49:02;99652.81;;;31.60;nan
46876;BME280;32866;50.160;14.768;2023-06-22T07:51:28;99678.72;;;32.16;nan
46876;BME280;32866;50.160;14.768;2023-06-22T07:53:54;99679.34;;;32.60;nan
46876;BME280;32866;50.160;14.768;2023-06-22T07:56:20;99672.09;;;32.94;nan
46876;BME280;32866;50.160;14.768;2023-06-22T07:58:47;99665.75;;;33.13;nan
46876;BME280;32866;50.160;14.768;2023-06-22T08:01:16;99660.41;;;32.89;nan
46876;BME280;32866;50.160;14.768;2023-06-22T08:03:42;99648.22;;;32.97;nan
46876;BME280;32866;50.160;14.768;2023-06-22T08:06:09;99633.88;;;32.95;nan
46876;BME280;32866;50.160;14.768;2023-06-22T08:08:38;99618.63;;;32.63;nan
46876;BME280;32866;50.160;14.768;2023-06-22T08:11:04;99617.59;;;32.68;nan
46876;BME280;32866;50.160;14.768;2023-06-22T08:13:31;99621.09;;;33.13;nan
46876;BME280;32866;50.160;14.768;2023-06-22T08:15:57;99631.50;;;33.38;nan
46876;BME280;32866;50.160;14.768;2023-06-22T08:18:23;99631.09;;;33.51;nan
46876;BME280;32866;50.160;14.768;2023-06-22T08:20:49;99627.75;;;33.25;nan
46876;BME280;32866;50.160;14.768;2023-06-22T08:23:15;99626.31;;;33.07;nan
46876;BME280;32866;50.160;14.768;2023-06-22T08:25:41;99612.91;;;32.80;nan
46876;BME280;32866;50.160;14.768;2023-06-22T08:28:07;99621.44;;;32.35;nan
46876;BME280;32866;50.160;14.768;2023-06-22T08:30:34;99619.81;;;32.42;nan
46876;BME280;32866;50.160;14.768;2023-06-22T08:33:00;99615.78;;;33.17;nan
46876;BME280;32866;50.160;14.768;2023-06-22T08:35:26;99592.94;;;33.25;nan
46876;BME280;32866;50.160;14.768;2023-06-22T08:37:52;99607.69;;;33.90;nan
46876;BME280;32866;50.160;14.768;2023-06-22T08:40:21;99605.25;;;33.57;nan
46876;BME280;32866;50.160;14.768;2023-06-22T08:42:47;99599.00;;;33.68;nan
46876;BME280;32866;50.160;14.768;2023-06-22T08:45:14;99604.56;;;33.76;nan
46876;BME280;32866;50.160;14.768;2023-06-22T08:47:40;99604.69;;;33.68;nan
46876;BME280;32866;50.160;14.768;2023-06-22T08:50:08;99609.06;;;33.79;nan
46876;BME280;32866;50.160;14.768;2023-06-22T08:52:35;99610.84;;;33.94;nan
46876;BME280;32866;50.160;14.768;2023-06-22T08:55:01;99584.34;;;33.52;nan
46876;BME280;32866;50.160;14.768;2023-06-22T08:57:27;99603.66;;;34.03;nan
46876;BME280;32866;50.160;14.768;2023-06-22T08:59:54;99592.28;;;33.83;nan
46876;BME280;32866;50.160;14.768;2023-06-22T09:02:27;99603.53;;;34.81;nan
46876;BME280;32866;50.160;14.768;2023-06-22T09:04:59;99599.91;;;34.39;nan
46876;BME280;32866;50.160;14.768;2023-06-22T09:07:25;99601.84;;;34.36;nan
46876;BME280;32866;50.160;14.768;2023-06-22T09:09:51;99596.41;;;34.60;nan
46876;BME280;32866;50.160;14.768;2023-06-22T09:12:18;99601.75;;;34.66;nan
46876;BME280;32866;50.160;14.768;2023-06-22T09:14:46;99572.25;;;34.00;nan
46876;BME280;32866;50.160;14.768;2023-06-22T09:17:12;99597.13;;;34.61;nan
46876;BME280;32866;50.160;14.768;2023-06-22T09:19:38;99573.56;;;34.89;nan
46876;BME280;32866;50.160;14.768;2023-06-22T09:22:05;99593.50;;;35.11;nan
46876;BME280;32866;50.160;14.768;2023-06-22T16:33:17;99115.22;;;30.63;74.63
46876;BME280;32866;50.160;14.768;2023-06-22T16:36:01;99101.88;;;30.46;74.64
46876;BME280;32866;50.160;14.768;2023-06-22T16:38:46;99100.81;;;30.41;74.89
46876;BME280;32866;50.160;14.768;2023-06-22T16:41:30;99133.56;;;30.71;74.13
46876;BME280;32866;50.160;14.768;2023-06-22T16:44:15;99138.28;;;30.59;75.32
46876;BME280;32866;50.160;14.768;2023-06-22T16:47:00;99108.53;;;30.23;75.52
46876;BME280;32866;50.160;14.768;2023-06-22T16:49:47;99125.81;;;30.27;77.87
46876;BME280;32866;50.160;14.768;2023-06-22T16:52:33;99142.78;;;30.27;76.84
46876;BME280;32866;50.160;14.768;2023-06-22T16:55:20;99134.63;;;30.14;80.29
46876;BME280;32866;50.160;14.768;2023-06-22T16:58:05;99135.13;;;30.03;82.21
46876;BME280;32866;50.160;14.768;2023-06-22T17:00:51;99128.00;;;30.02;82.13
46876;BME280;32866;50.160;14.768;2023-06-22T17:03:41;99117.91;;;29.73;82.37
46876;BME280;32866;50.160;14.768;2023-06-22T17:06:27;99109.56;;;29.58;83.24
46876;BME280;32866;50.160;14.768;2023-06-22T17:09:13;99110.47;;;29.43;85.58
46876;BME280;32866;50.160;14.768;2023-06-22T17:11:59;99107.63;;;29.43;85.08
46876;BME280;32866;50.160;14.768;2023-06-22T17:14:44;99095.38;;;29.48;85.88
46876;BME280;32866;50.160;14.768;2023-06-22T17:17:29;99114.97;;;29.64;84.86
46876;BME280;32866;50.160;14.768;2023-06-22T17:20:14;99091.38;;;29.51;85.46
46876;BME280;32866;50.160;14.768;2023-06-22T17:22:58;99113.16;;;29.76;85.38
46876;BME280;32866;50.160;14.768;2023-06-22T17:25:45;99109.03;;;29.77;83.73
46876;BME280;32866;50.160;14.768;2023-06-22T17:28:51;99091.88;;;29.57;83.21
46876;BME280;32866;50.160;14.768;2023-06-22T17:31:38;99097.88;;;29.62;85.88
46876;BME280;32866;50.160;14.768;2023-06-22T17:34:26;99072.56;;;29.29;87.25
46876;BME280;32866;50.160;14.768;2023-06-22T17:37:12;99065.19;;;29.08;89.97
46876;BME280;32866;50.160;14.768;2023-06-22T17:39:57;99055.19;;;28.90;91.12
46876;BME280;32866;50.160;14.768;2023-06-22T17:42:41;99062.50;;;28.93;89.60
46876;BME280;32866;50.160;14.768;2023-06-22T17:45:27;99045.94;;;28.64;90.29
46876;BME280;32866;50.160;14.768;2023-06-22T17:48:12;99020.88;;;28.43;91.86
46876;BME280;32866;50.160;14.768;2023-06-22T17:50:56;99027.25;;;28.43;91.33
46876;BME280;32866;50.160;14.768;2023-06-22T17:53:47;99046.75;;;28.57;91.55
46876;BME280;32866;50.160;14.768;2023-06-22T17:56:32;99046.53;;;28.55;92.56
46876;BME280;32866;50.160;14.768;2023-06-22T17:59:20;99042.28;;;28.46;94.06
46876;BME280;32866;50.160;14.768;2023-06-22T18:02:10;99037.03;;;28.42;94.77
46876;BME280;32866;50.160;14.768;2023-06-22T18:05:02;99044.13;;;28.51;96.60
46876;BME280;32866;50.160;14.768;2023-06-22T18:07:50;99044.91;;;28.44;99.39
46876;BME280;32866;50.160;14.768;2023-06-22T18:10:36;99021.56;;;28.18;100.00
46876;BME280;32866;50.160;14.768;2023-06-22T18:13:23;99046.44;;;28.37;100.00
46876;BME280;32866;50.160;14.768;2023-06-22T18:16:09;99023.88;;;28.04;100.00
46876;BME280;32866;50.160;14.768;2023-06-22T18:18:54;99027.47;;;27.89;100.00
46876;BME280;32866;50.160;14.768;2023-06-22T18:21:41;99054.16;;;27.73;100.00
46876;BME280;32866;50.160;14.768;2023-06-22T18:24:26;99063.94;;;27.56;100.00
46876;BME280;32866;50.160;14.768;2023-06-22T18:27:13;99062.63;;;27.50;100.00
46876;BME280;32866;50.160;14.768;2023-06-22T18:29:59;99061.50;;;27.30;100.00
46876;BME280;32866;50.160;14.768;2023-06-22T18:32:44;99022.69;;;26.97;100.00
46876;BME280;32866;50.160;14.768;2023-06-22T18:35:29;99041.44;;;27.02;100.00
46876;BME280;32866;50.160;14.768;2023-06-22T18:38:13;99006.59;;;26.75;100.00
46876;BME280;32866;50.160;14.768;2023-06-22T18:40:58;99012.91;;;26.68;100.00
46876;BME280;32866;50.160;14.768;2023-06-22T18:43:43;99019.50;;;26.70;100.00
46876;BME280;32866;50.160;14.768;2023-06-22T18:46:37;99028.97;;;26.59;100.00
46876;BME280;32866;50.160;14.768;2023-06-22T18:49:23;99014.13;;;26.36;100.00
46876;BME280;32866;50.160;14.768;2023-06-22T18:54:52;99014.28;;;26.22;100.00
46876;BME280;32866;50.160;14.768;2023-06-22T18:57:38;99038.44;;;26.25;100.00
46876;BME280;32866;50.160;14.768;2023-06-22T19:00:30;99029.91;;;26.02;100.00
46876;BME280;32866;50.160;14.768;2023-06-22T19:03:28;99061.44;;;26.16;100.00
46876;BME280;32866;50.160;14.768;2023-06-22T19:07:06;99079.81;;;25.67;100.00
46876;BME280;32866;50.160;14.768;2023-06-22T19:16:10;99064.31;;;25.38;100.00
46876;BME280;32866;50.160;14.768;2023-06-22T19:18:57;99062.53;;;25.06;100.00
46876;BME280;32866;50.160;14.768;2023-06-22T19:21:41;99076.44;;;24.98;100.00
46876;BME280;32866;50.160;14.768;2023-06-22T19:24:30;99060.38;;;24.77;100.00
46876;BME280;32866;50.160;14.768;2023-06-22T19:27:16;99086.19;;;24.84;100.00
46876;BME280;32866;50.160;14.768;2023-06-22T19:30:01;99084.13;;;24.63;100.00
46876;BME280;32866;50.160;14.768;2023-06-22T19:32:46;99065.22;;;24.29;100.00
46876;BME280;32866;50.160;14.768;2023-06-22T19:35:32;99105.69;;;24.41;100.00
46876;BME280;32866;50.160;14.768;2023-06-22T19:38:18;99111.50;;;24.43;100.00
46876;BME280;32866;50.160;14.768;2023-06-22T19:41:06;99096.13;;;24.37;100.00
46876;BME280;32866;50.160;14.768;2023-06-22T19:43:51;99110.84;;;24.51;100.00
46876;BME280;32866;50.160;14.768;2023-06-22T19:46:36;99125.78;;;24.53;100.00
46876;BME280;32866;50.160;14.768;2023-06-22T19:49:20;99097.28;;;24.41;100.00
46876;BME280;32866;50.160;14.768;2023-06-22T19:52:06;99121.50;;;24.66;100.00
46876;BME280;32866;50.160;14.768;2023-06-22T19:54:51;99101.22;;;24.73;100.00
46876;BME280;32866;50.160;14.768;2023-06-22T19:57:36;99087.56;;;24.69;100.00
46876;BME280;32866;50.160;14.768;2023-06-22T20:00:22;99048.00;;;24.38;100.00
46876;BME280;32866;50.160;14.768;2023-06-22T20:03:14;99054.09;;;24.50;100.00
46876;BME280;32866;50.160;14.768;2023-06-22T20:06:25;99021.59;;;24.47;100.00
46876;BME280;32866;50.160;14.768;2023-06-22T20:09:12;98980.97;;;24.19;100.00
46876;BME280;32866;50.160;14.768;2023-06-22T20:11:58;99000.34;;;24.52;100.00
46876;BME280;32866;50.160;14.768;2023-06-22T20:14:42;98967.50;;;24.18;100.00
46876;BME280;32866;50.160;14.768;2023-06-22T20:17:27;98970.75;;;24.22;100.00
46876;BME280;32866;50.160;14.768;2023-06-22T20:20:19;98982.25;;;24.53;100.00
46876;BME280;32866;50.160;14.768;2023-06-22T20:23:05;98975.19;;;24.73;100.00
46876;BME280;32866;50.160;14.768;2023-06-22T20:25:50;98945.25;;;24.68;100.00
46876;BME280;32866;50.160;14.768;2023-06-22T20:28:36;98945.03;;;24.87;100.00
46876;BME280;32866;50.160;14.768;2023-06-22T20:31:21;98948.34;;;24.77;100.00
46876;BME280;32866;50.160;14.768;2023-06-22T20:34:07;98901.69;;;24.59;100.00
46876;BME280;32866;50.160;14.768;2023-06-22T20:36:52;98924.03;;;24.72;100.00
46876;BME280;32866;50.160;14.768;2023-06-22T20:39:36;98873.88;;;24.40;100.00
46876;BME280;32866;50.160;14.768;2023-06-22T20:42:21;98907.09;;;24.57;100.00
46876;BME280;32866;50.160;14.768;2023-06-22T20:45:06;98882.84;;;24.59;100.00
46876;BME280;32866;50.160;14.768;2023-06-22T20:47:52;98860.84;;;24.63;100.00
46876;BME280;32866;50.160;14.768;2023-06-22T20:50:37;98857.16;;;24.48;100.00
46876;BME280;32866;50.160;14.768;2023-06-22T20:53:22;98818.72;;;24.27;100.00
46876;BME280;32866;50.160;14.768;2023-06-22T20:56:06;98843.16;;;24.48;100.00
46876;BME280;32866;50.160;14.768;2023-06-22T20:58:51;98812.44;;;24.34;100.00